Al Nefud — 9HA3723 — position and weather

sailwx.info

Track history (hours):
 
Tides and Currents Weather Stations Pressure Air Temp Water Temp Dewpoint Dewpoint Depression Visibility Wind Speed Wind Dir Waves Ship Positions

Al Nefud

Last reported at 2017-Nov-11 15:40 UTC. Time now 2017-Nov-25 09:56 UTC.
Position N 36°23' E 015°13'.
Warning: this ship's position is 13 days out of date.

Length 400 m; draft 15.4 m.

Type: Ship (hazmat cat A). MMSI: 229926000.

Date/timePositionNaut miles runAvg speedWind from/ knotsBaromVisibWave heightAir tempDewpointWater temp
2017-Nov-11 15:40N 36°23' E 015°13'317.6
2017-Nov-11 15:30N 36°24' E 015°09'1117.4
2017-Nov-11 14:52N 36°27' E 014°56'617.4
2017-Nov-11 14:30N 36°28' E 014°48'917.6
2017-Nov-11 13:59N 36°30' E 014°37'918.2
2017-Nov-11 13:30N 36°33' E 014°26'918.8
2017-Nov-11 13:00N 36°35' E 014°15'918.8
2017-Nov-11 12:30N 36°38' E 014°04'93518.3
2017-Nov-09 09:20N 35°60' W 005°16'720.5
2017-Nov-09 09:00N 35°58' W 005°24'23016.5
2017-Nov-08 19:01N 37°33' W 009°45'219.0
2017-Nov-08 18:56N 37°35' W 009°45'818.7
2017-Nov-08 18:30N 37°43' W 009°48'1018.7
2017-Nov-08 17:59N 37°53' W 009°50'919.1
2017-Nov-08 17:30N 38°01' W 009°53'1018.8
2017-Nov-08 17:00N 38°10' W 009°55'919.0
2017-Nov-08 16:30N 38°20' W 009°58'1019.1
2017-Nov-08 16:00N 38°29' W 010°01'1019.3
2017-Nov-08 15:30N 38°38' W 010°04'918.7
2017-Nov-08 15:00N 38°48' W 010°05'918.0
2017-Nov-08 14:31N 38°57' W 010°05'917.8
2017-Nov-08 14:00N 39°05' W 010°06'918.3
2017-Nov-08 13:30N 39°15' W 010°05'918.1
2017-Nov-08 13:01N 39°24' W 010°05'56417.4
2017-Nov-07 04:30N 48°23' W 006°15'814.6
2017-Nov-07 03:58N 48°30' W 006°09'714.1
2017-Nov-07 03:30N 48°36' W 006°04'713.6
2017-Nov-07 03:00N 48°42' W 005°59'612.7
2017-Nov-07 02:29N 48°47' W 005°54'712.9
2017-Nov-07 01:59N 48°52' W 005°48'713.6
2017-Nov-07 01:30N 48°56' W 005°40'814.6
2017-Nov-07 00:58N 48°60' W 005°29'715.7
2017-Nov-07 00:31N 49°03' W 005°20'918.3
2017-Nov-07 00:00N 49°08' W 005°07'1018.6
2017-Nov-06 23:29N 49°13' W 004°55'1018.3
2017-Nov-06 22:56N 49°18' W 004°42'3917.0
2017-Nov-06 20:40N 49°38' W 003°51'415.7
2017-Nov-06 20:25N 49°40' W 003°46'153 8.5
2017-Nov-06 02:29N 49°27' E 000°10'0 0.0
2017-Nov-06 01:59N 49°27' E 000°10'0 0.0
2017-Nov-06 01:29N 49°27' E 000°10'0 0.0
2017-Nov-06 00:59N 49°27' E 000°10'0 0.0
2017-Nov-06 00:29N 49°27' E 000°10'0 0.0
2017-Nov-05 23:59N 49°27' E 000°10'0 0.0
2017-Nov-05 23:29N 49°27' E 000°10'0 0.0
2017-Nov-05 22:59N 49°27' E 000°10'0 0.0
2017-Nov-05 22:29N 49°27' E 000°10'0 0.0
2017-Nov-05 21:59N 49°27' E 000°10'0 0.0
2017-Nov-05 21:29N 49°27' E 000°10'0 0.0
2017-Nov-05 20:59N 49°27' E 000°10'0 0.0
2017-Nov-05 20:29N 49°27' E 000°10'0 0.3
2017-Nov-05 20:00N 49°27' E 000°09'0 0.8
2017-Nov-05 19:30N 49°27' E 000°09'4 7.7
2017-Nov-05 19:00N 49°29' E 000°04'713.4
2017-Nov-05 18:30N 49°31' W 000°06'613.0
2017-Nov-05 18:01N 49°33' W 000°16'612.9
2017-Nov-05 17:30N 49°36' W 000°25'1 1.8
2017-Nov-05 17:00N 49°36' W 000°25'1 1.6
2017-Nov-05 16:30N 49°36' W 000°26'4 7.8
2017-Nov-05 16:00N 49°38' W 000°31'1 1.7
2017-Nov-05 15:30N 49°39' W 000°31'0 0.6
2017-Nov-05 15:00N 49°39' W 000°30'1 1.2
2017-Nov-05 14:30N 49°39' W 000°30'1 1.2
2017-Nov-05 14:00N 49°39' W 000°30'1 1.6
2017-Nov-05 13:30N 49°40' W 000°29'0 0.6
2017-Nov-05 13:00N 49°40' W 000°29'0 0.9
2017-Nov-05 12:30N 49°40' W 000°28'3 5.8
2017-Nov-05 12:00N 49°39' W 000°24'3 5.6
2017-Nov-05 11:30N 49°38' W 000°20'2 4.3
2017-Nov-05 11:00N 49°38' W 000°16'0 0.8
2017-Nov-05 10:30N 49°38' W 000°16'1 2.6
2017-Nov-05 10:00N 49°38' W 000°18'1 2.6
2017-Nov-05 09:30N 49°38' W 000°20'1 2.0
2017-Nov-05 09:00N 49°38' W 000°22'1 2.4
2017-Nov-05 08:30N 49°39' W 000°20'2 4.5
2017-Nov-05 08:00N 49°40' W 000°17'2 4.6
2017-Nov-05 07:30N 49°42' W 000°14'3 5.5
2017-Nov-05 07:00N 49°44' W 000°11'5 9.4
2017-Nov-05 06:30N 49°48' W 000°09'510.9
2017-Nov-05 06:00N 49°54' W 000°08'510.8
2017-Nov-05 05:30N 49°59' W 000°07'611.1
2017-Nov-05 05:00N 50°04' W 000°06'611.0
2017-Nov-05 04:30N 50°10' W 000°07'510.9
2017-Nov-05 04:00N 50°15' W 000°08'510.8
2017-Nov-05 03:30N 50°21' W 000°07'611.3
2017-Nov-05 03:00N 50°26' W 000°03'510.4
2017-Nov-05 02:30N 50°28' E 000°04'510.8
2017-Nov-05 02:00N 50°30' E 000°12'510.5
2017-Nov-05 01:30N 50°32' E 000°20'510.2
2017-Nov-05 01:00N 50°34' E 000°27'5 9.7
2017-Nov-05 00:30N 50°35' E 000°35'5 9.5
2017-Nov-05 00:00N 50°38' E 000°41'5 9.1
2017-Nov-04 23:30N 50°41' E 000°47'4 8.7
2017-Nov-04 23:00N 50°43' E 000°52'4 8.5
2017-Nov-04 22:30N 50°46' E 000°58'4 8.6
2017-Nov-04 22:00N 50°48' E 001°04'4 9.0
2017-Nov-04 21:30N 50°51' E 001°09'5 9.7
2017-Nov-04 21:00N 50°53' E 001°16'611.2
2017-Nov-04 20:30N 50°58' E 001°22'612.5
2017-Nov-04 20:00N 51°02' E 001°28'713.3
2017-Nov-04 19:30N 51°07' E 001°36'713.7
2017-Nov-04 19:00N 51°12' E 001°43'715.0
2017-Nov-04 18:31N 51°18' E 001°50'714.0
2017-Nov-04 18:00N 51°24' E 001°55'713.1
2017-Nov-04 17:30N 51°30' E 002°01'612.6
2017-Nov-04 17:00N 51°34' E 002°08'612.1
2017-Nov-04 16:30N 51°39' E 002°14'611.8
2017-Nov-04 16:00N 51°43' E 002°20'4811.8
2017-Nov-04 11:56N 52°03' E 003°32'511.8
2017-Nov-04 11:30N 52°02' E 003°40'2 3.2
2017-Nov-04 11:00N 52°01' E 003°42'510.9
2017-Nov-04 10:30N 52°01' E 003°51'5 9.8
2017-Nov-04 10:01N 52°00' E 003°59'5 9.2
2017-Nov-04 09:31N 51°58' E 004°05'2 4.3
2017-Nov-04 09:01N 51°58' E 004°02'1 2.6
2017-Nov-04 08:31N 51°58' E 004°00'1 1.3
2017-Nov-04 08:01N 51°57' E 003°60'0 0.2
2017-Nov-04 07:30N 51°57' E 003°59'0 0.0
2017-Nov-04 06:59N 51°57' E 003°59'0 0.0
2017-Nov-04 06:29N 51°57' E 003°59'0 0.0
2017-Nov-04 05:59N 51°57' E 003°59'0 0.0
2017-Nov-04 05:30N 51°57' E 003°59'0 0.0
2017-Nov-04 04:59N 51°57' E 003°59'0 0.0
2017-Nov-04 04:30N 51°57' E 003°59'0 0.0
2017-Nov-04 04:00N 51°57' E 003°59'0 0.0
2017-Nov-04 03:29N 51°57' E 003°59'0 0.0
2017-Nov-04 02:59N 51°57' E 003°59'0 0.0
2017-Nov-04 02:30N 51°57' E 003°59'0 0.0
2017-Nov-04 02:00N 51°57' E 003°59'0 0.0
2017-Nov-04 01:29N 51°57' E 003°59'0 0.0
2017-Nov-04 00:59N 51°57' E 003°59'0 0.0
2017-Nov-04 00:30N 51°57' E 003°59'0 0.0
2017-Nov-03 23:55N 51°57' E 003°59'0 0.0
2017-Nov-03 23:29N 51°57' E 003°59'0 0.0
2017-Nov-03 22:59N 51°57' E 003°59'0 0.0
2017-Nov-03 22:30N 51°57' E 003°59'0 0.0
2017-Nov-03 21:59N 51°57' E 003°59'0 0.0
2017-Nov-03 21:29N 51°57' E 003°59'0 0.0
2017-Nov-03 20:59N 51°57' E 003°59'0 0.0
2017-Nov-03 20:30N 51°57' E 003°59'0 0.0
2017-Nov-03 20:00N 51°57' E 003°59'0 0.0
2017-Nov-03 19:30N 51°57' E 003°59'0 0.0
2017-Nov-03 18:59N 51°57' E 003°59'0 0.0
2017-Nov-03 18:30N 51°57' E 003°59'0 0.0
2017-Nov-03 18:00N 51°57' E 003°59'0 0.0
2017-Nov-03 17:30N 51°57' E 003°59'0 0.0
2017-Nov-03 16:59N 51°57' E 003°59'0 0.0
2017-Nov-03 16:30N 51°57' E 003°59'0 0.0
2017-Nov-03 16:00N 51°57' E 003°59'0 0.0
2017-Nov-03 15:29N 51°57' E 003°59'0 0.0
2017-Nov-03 15:00N 51°57' E 003°59'0 0.0
2017-Nov-03 14:29N 51°57' E 003°59'0 0.0
2017-Nov-03 13:59N 51°57' E 003°59'0 0.0
2017-Nov-03 13:30N 51°57' E 003°59'0 0.0
2017-Nov-03 12:59N 51°57' E 003°59'0 0.0
2017-Nov-03 12:29N 51°57' E 003°59'0 0.0
2017-Nov-03 11:59N 51°57' E 003°59'0 0.0
2017-Nov-03 11:30N 51°57' E 003°59'0 0.0
2017-Nov-03 11:00N 51°57' E 003°59'0 0.0
2017-Nov-03 10:30N 51°57' E 003°59'0 0.0
2017-Nov-03 10:00N 51°57' E 003°59'0 0.0
2017-Nov-03 09:29N 51°57' E 003°59'0 0.0
2017-Nov-03 09:00N 51°57' E 003°59'0 0.0
2017-Nov-03 08:29N 51°57' E 003°59'0 0.0
2017-Nov-03 07:53N 51°57' E 003°59'0 0.0
2017-Nov-03 07:29N 51°57' E 003°59'0 0.0
2017-Nov-03 07:00N 51°57' E 003°59'0 0.0
2017-Nov-03 06:29N 51°57' E 003°59'0 0.0
2017-Nov-03 05:59N 51°57' E 003°59'0 0.0
2017-Nov-03 05:29N 51°57' E 003°59'0 0.0
2017-Nov-03 04:59N 51°57' E 003°59'0 0.0
2017-Nov-03 04:29N 51°57' E 003°59'0 0.0
2017-Nov-03 03:59N 51°57' E 003°59'0 0.0
2017-Nov-03 03:29N 51°57' E 003°59'0 0.0
2017-Nov-03 03:00N 51°57' E 003°59'0 0.0
2017-Nov-03 02:30N 51°57' E 003°59'0 0.0
2017-Nov-03 01:59N 51°57' E 003°59'0 0.0
2017-Nov-03 01:29N 51°57' E 003°59'0 0.0
2017-Nov-03 01:00N 51°57' E 003°59'0 0.0
2017-Nov-03 00:30N 51°57' E 003°59'0 0.0
2017-Nov-02 23:59N 51°57' E 003°59'0 0.0
2017-Nov-02 23:29N 51°57' E 003°59'0 0.0
2017-Nov-02 23:00N 51°57' E 003°59'0 0.0
2017-Nov-02 22:29N 51°57' E 003°59'0 0.0
2017-Nov-02 21:59N 51°57' E 003°59'0 0.0
2017-Nov-02 21:29N 51°57' E 003°59'0 0.0
2017-Nov-02 20:59N 51°57' E 003°59'0 0.0
2017-Nov-02 20:29N 51°57' E 003°59'0 0.0
2017-Nov-02 19:59N 51°57' E 003°59'0 0.0
2017-Nov-02 19:29N 51°57' E 003°59'0 0.0
2017-Nov-02 18:59N 51°57' E 003°59'0 0.0
2017-Nov-02 18:30N 51°57' E 003°59'0 0.0
2017-Nov-02 17:59N 51°57' E 003°59'0 0.0
2017-Nov-02 17:29N 51°57' E 003°59'0 0.0
2017-Nov-02 16:59N 51°57' E 003°59'0 0.0
2017-Nov-02 16:29N 51°57' E 003°59'0 0.0
2017-Nov-02 15:59N 51°57' E 003°59'0 0.0
2017-Nov-02 15:30N 51°57' E 003°59'0 0.0
2017-Nov-02 14:59N 51°57' E 003°59'0 0.0
2017-Nov-02 14:30N 51°57' E 003°59'0 0.0
2017-Nov-02 14:00N 51°57' E 003°59'0 0.0
2017-Nov-02 13:29N 51°57' E 003°59'0 0.0
2017-Nov-02 12:59N 51°57' E 003°59'0 0.0
2017-Nov-02 12:29N 51°57' E 003°59'0 0.0
2017-Nov-02 11:59N 51°57' E 003°59'0 0.0
2017-Nov-02 11:29N 51°57' E 003°59'0 0.0
2017-Nov-02 11:00N 51°57' E 003°59'0 0.0
2017-Nov-02 10:29N 51°57' E 003°59'0 0.0
2017-Nov-02 10:00N 51°57' E 003°59'0 0.0
2017-Nov-02 09:30N 51°57' E 003°59'0 0.0
2017-Nov-02 08:59N 51°57' E 003°59'0 0.0
2017-Nov-02 08:30N 51°57' E 003°59'0 0.0
2017-Nov-02 07:59N 51°57' E 003°59'0 0.0
2017-Nov-02 07:29N 51°57' E 003°59'0 0.0
2017-Nov-02 07:00N 51°57' E 003°59'0 0.0
2017-Nov-02 06:29N 51°57' E 003°59'0 0.0
2017-Nov-02 06:00N 51°57' E 003°59'0 0.0
2017-Nov-02 05:29N 51°57' E 003°59'0 0.0
2017-Nov-02 04:57N 51°57' E 003°59'0 0.0
2017-Nov-02 04:30N 51°57' E 003°59'0 0.0
2017-Nov-02 03:59N 51°57' E 003°59'0 0.0
2017-Nov-02 03:29N 51°57' E 003°59'0 0.0
2017-Nov-02 02:59N 51°57' E 003°59'0 0.0
2017-Nov-02 02:30N 51°57' E 003°59'0 0.0
2017-Nov-02 01:59N 51°57' E 003°59'0 0.0
2017-Nov-02 01:29N 51°57' E 003°59'0 0.0
2017-Nov-02 00:59N 51°57' E 003°59'0 0.0
2017-Nov-02 00:27N 51°57' E 003°59'0 0.0
2017-Nov-01 23:59N 51°57' E 003°59'0 0.0
2017-Nov-01 23:29N 51°57' E 003°59'0 0.0
2017-Nov-01 22:57N 51°57' E 003°59'0 0.0
2017-Nov-01 22:29N 51°57' E 003°59'0 0.0
2017-Nov-01 21:59N 51°57' E 003°59'0 0.0
2017-Nov-01 21:30N 51°57' E 003°59'0 0.0
2017-Nov-01 21:00N 51°57' E 003°59'0 0.0
2017-Nov-01 20:29N 51°57' E 003°59'0 0.0
2017-Nov-01 20:00N 51°57' E 003°59'0 0.0
2017-Nov-01 19:29N 51°57' E 003°59'0 0.0
2017-Nov-01 19:00N 51°57' E 003°59'0 0.0
2017-Nov-01 18:30N 51°57' E 003°59'  
Track history (hours):
 
Tides and Currents Weather Stations Pressure Air Temp Water Temp Dewpoint Dewpoint Depression Visibility Wind Speed Wind Dir Waves Ship Positions

Al Nefud

Last reported at 2017-Nov-11 15:40 UTC. Time now 2017-Nov-25 09:56 UTC.
Position N 36°23' E 015°13'.
Warning: this ship's position is 13 days out of date.

Length 400 m; draft 15.4 m.

Type: Ship (hazmat cat A). MMSI: 229926000.

Date/timePositionNaut miles runAvg speedWind from/ knotsBaromVisibWave heightAir tempDewpointWater temp
2017-Nov-11 15:40N 36°23' E 015°13'317.6
2017-Nov-11 15:30N 36°24' E 015°09'1117.4
2017-Nov-11 14:52N 36°27' E 014°56'617.4
2017-Nov-11 14:30N 36°28' E 014°48'917.6
2017-Nov-11 13:59N 36°30' E 014°37'918.2
2017-Nov-11 13:30N 36°33' E 014°26'918.8
2017-Nov-11 13:00N 36°35' E 014°15'918.8
2017-Nov-11 12:30N 36°38' E 014°04'93518.3
2017-Nov-09 09:20N 35°60' W 005°16'720.5
2017-Nov-09 09:00N 35°58' W 005°24'23016.5
2017-Nov-08 19:01N 37°33' W 009°45'219.0
2017-Nov-08 18:56N 37°35' W 009°45'818.7
2017-Nov-08 18:30N 37°43' W 009°48'1018.7
2017-Nov-08 17:59N 37°53' W 009°50'919.1
2017-Nov-08 17:30N 38°01' W 009°53'1018.8
2017-Nov-08 17:00N 38°10' W 009°55'919.0
2017-Nov-08 16:30N 38°20' W 009°58'1019.1
2017-Nov-08 16:00N 38°29' W 010°01'1019.3
2017-Nov-08 15:30N 38°38' W 010°04'918.7
2017-Nov-08 15:00N 38°48' W 010°05'918.0
2017-Nov-08 14:31N 38°57' W 010°05'917.8
2017-Nov-08 14:00N 39°05' W 010°06'918.3
2017-Nov-08 13:30N 39°15' W 010°05'918.1
2017-Nov-08 13:01N 39°24' W 010°05'56417.4
2017-Nov-07 04:30N 48°23' W 006°15'814.6
2017-Nov-07 03:58N 48°30' W 006°09'714.1
2017-Nov-07 03:30N 48°36' W 006°04'713.6
2017-Nov-07 03:00N 48°42' W 005°59'612.7
2017-Nov-07 02:29N 48°47' W 005°54'712.9
2017-Nov-07 01:59N 48°52' W 005°48'713.6
2017-Nov-07 01:30N 48°56' W 005°40'814.6
2017-Nov-07 00:58N 48°60' W 005°29'715.7
2017-Nov-07 00:31N 49°03' W 005°20'918.3
2017-Nov-07 00:00N 49°08' W 005°07'1018.6
2017-Nov-06 23:29N 49°13' W 004°55'1018.3
2017-Nov-06 22:56N 49°18' W 004°42'3917.0
2017-Nov-06 20:40N 49°38' W 003°51'415.7
2017-Nov-06 20:25N 49°40' W 003°46'153 8.5
2017-Nov-06 02:29N 49°27' E 000°10'0 0.0
2017-Nov-06 01:59N 49°27' E 000°10'0 0.0
2017-Nov-06 01:29N 49°27' E 000°10'0 0.0
2017-Nov-06 00:59N 49°27' E 000°10'0 0.0
2017-Nov-06 00:29N 49°27' E 000°10'0 0.0
2017-Nov-05 23:59N 49°27' E 000°10'0 0.0
2017-Nov-05 23:29N 49°27' E 000°10'0 0.0
2017-Nov-05 22:59N 49°27' E 000°10'0 0.0
2017-Nov-05 22:29N 49°27' E 000°10'0 0.0
2017-Nov-05 21:59N 49°27' E 000°10'0 0.0
2017-Nov-05 21:29N 49°27' E 000°10'0 0.0
2017-Nov-05 20:59N 49°27' E 000°10'0 0.0
2017-Nov-05 20:29N 49°27' E 000°10'0 0.3
2017-Nov-05 20:00N 49°27' E 000°09'0 0.8
2017-Nov-05 19:30N 49°27' E 000°09'4 7.7
2017-Nov-05 19:00N 49°29' E 000°04'713.4
2017-Nov-05 18:30N 49°31' W 000°06'613.0
2017-Nov-05 18:01N 49°33' W 000°16'612.9
2017-Nov-05 17:30N 49°36' W 000°25'1 1.8
2017-Nov-05 17:00N 49°36' W 000°25'1 1.6
2017-Nov-05 16:30N 49°36' W 000°26'4 7.8
2017-Nov-05 16:00N 49°38' W 000°31'1 1.7
2017-Nov-05 15:30N 49°39' W 000°31'0 0.6
2017-Nov-05 15:00N 49°39' W 000°30'1 1.2
2017-Nov-05 14:30N 49°39' W 000°30'1 1.2
2017-Nov-05 14:00N 49°39' W 000°30'1 1.6
2017-Nov-05 13:30N 49°40' W 000°29'0 0.6
2017-Nov-05 13:00N 49°40' W 000°29'0 0.9
2017-Nov-05 12:30N 49°40' W 000°28'3 5.8
2017-Nov-05 12:00N 49°39' W 000°24'3 5.6
2017-Nov-05 11:30N 49°38' W 000°20'2 4.3
2017-Nov-05 11:00N 49°38' W 000°16'0 0.8
2017-Nov-05 10:30N 49°38' W 000°16'1 2.6
2017-Nov-05 10:00N 49°38' W 000°18'1 2.6
2017-Nov-05 09:30N 49°38' W 000°20'1 2.0
2017-Nov-05 09:00N 49°38' W 000°22'1 2.4
2017-Nov-05 08:30N 49°39' W 000°20'2 4.5
2017-Nov-05 08:00N 49°40' W 000°17'2 4.6
2017-Nov-05 07:30N 49°42' W 000°14'3 5.5
2017-Nov-05 07:00N 49°44' W 000°11'5 9.4
2017-Nov-05 06:30N 49°48' W 000°09'510.9
2017-Nov-05 06:00N 49°54' W 000°08'510.8
2017-Nov-05 05:30N 49°59' W 000°07'611.1
2017-Nov-05 05:00N 50°04' W 000°06'611.0
2017-Nov-05 04:30N 50°10' W 000°07'510.9
2017-Nov-05 04:00N 50°15' W 000°08'510.8
2017-Nov-05 03:30N 50°21' W 000°07'611.3
2017-Nov-05 03:00N 50°26' W 000°03'510.4
2017-Nov-05 02:30N 50°28' E 000°04'510.8
2017-Nov-05 02:00N 50°30' E 000°12'510.5
2017-Nov-05 01:30N 50°32' E 000°20'510.2
2017-Nov-05 01:00N 50°34' E 000°27'5 9.7
2017-Nov-05 00:30N 50°35' E 000°35'5 9.5
2017-Nov-05 00:00N 50°38' E 000°41'5 9.1
2017-Nov-04 23:30N 50°41' E 000°47'4 8.7
2017-Nov-04 23:00N 50°43' E 000°52'4 8.5
2017-Nov-04 22:30N 50°46' E 000°58'4 8.6
2017-Nov-04 22:00N 50°48' E 001°04'4 9.0
2017-Nov-04 21:30N 50°51' E 001°09'5 9.7
2017-Nov-04 21:00N 50°53' E 001°16'611.2
2017-Nov-04 20:30N 50°58' E 001°22'612.5
2017-Nov-04 20:00N 51°02' E 001°28'713.3
2017-Nov-04 19:30N 51°07' E 001°36'713.7
2017-Nov-04 19:00N 51°12' E 001°43'715.0
2017-Nov-04 18:31N 51°18' E 001°50'714.0
2017-Nov-04 18:00N 51°24' E 001°55'713.1
2017-Nov-04 17:30N 51°30' E 002°01'612.6
2017-Nov-04 17:00N 51°34' E 002°08'612.1
2017-Nov-04 16:30N 51°39' E 002°14'611.8
2017-Nov-04 16:00N 51°43' E 002°20'4811.8
2017-Nov-04 11:56N 52°03' E 003°32'511.8
2017-Nov-04 11:30N 52°02' E 003°40'2 3.2
2017-Nov-04 11:00N 52°01' E 003°42'510.9
2017-Nov-04 10:30N 52°01' E 003°51'5 9.8
2017-Nov-04 10:01N 52°00' E 003°59'5 9.2
2017-Nov-04 09:31N 51°58' E 004°05'2 4.3
2017-Nov-04 09:01N 51°58' E 004°02'1 2.6
2017-Nov-04 08:31N 51°58' E 004°00'1 1.3
2017-Nov-04 08:01N 51°57' E 003°60'0 0.2
2017-Nov-04 07:30N 51°57' E 003°59'0 0.0
2017-Nov-04 06:59N 51°57' E 003°59'0 0.0
2017-Nov-04 06:29N 51°57' E 003°59'0 0.0
2017-Nov-04 05:59N 51°57' E 003°59'0 0.0
2017-Nov-04 05:30N 51°57' E 003°59'0 0.0
2017-Nov-04 04:59N 51°57' E 003°59'0 0.0
2017-Nov-04 04:30N 51°57' E 003°59'0 0.0
2017-Nov-04 04:00N 51°57' E 003°59'0 0.0
2017-Nov-04 03:29N 51°57' E 003°59'0 0.0
2017-Nov-04 02:59N 51°57' E 003°59'0 0.0
2017-Nov-04 02:30N 51°57' E 003°59'0 0.0
2017-Nov-04 02:00N 51°57' E 003°59'0 0.0
2017-Nov-04 01:29N 51°57' E 003°59'0 0.0
2017-Nov-04 00:59N 51°57' E 003°59'0 0.0
2017-Nov-04 00:30N 51°57' E 003°59'0 0.0
2017-Nov-03 23:55N 51°57' E 003°59'0 0.0
2017-Nov-03 23:29N 51°57' E 003°59'0 0.0
2017-Nov-03 22:59N 51°57' E 003°59'0 0.0
2017-Nov-03 22:30N 51°57' E 003°59'0 0.0
2017-Nov-03 21:59N 51°57' E 003°59'0 0.0
2017-Nov-03 21:29N 51°57' E 003°59'0 0.0
2017-Nov-03 20:59N 51°57' E 003°59'0 0.0
2017-Nov-03 20:30N 51°57' E 003°59'0 0.0
2017-Nov-03 20:00N 51°57' E 003°59'0 0.0
2017-Nov-03 19:30N 51°57' E 003°59'0 0.0
2017-Nov-03 18:59N 51°57' E 003°59'0 0.0
2017-Nov-03 18:30N 51°57' E 003°59'0 0.0
2017-Nov-03 18:00N 51°57' E 003°59'0 0.0
2017-Nov-03 17:30N 51°57' E 003°59'0 0.0
2017-Nov-03 16:59N 51°57' E 003°59'0 0.0
2017-Nov-03 16:30N 51°57' E 003°59'0 0.0
2017-Nov-03 16:00N 51°57' E 003°59'0 0.0
2017-Nov-03 15:29N 51°57' E 003°59'0 0.0
2017-Nov-03 15:00N 51°57' E 003°59'0 0.0
2017-Nov-03 14:29N 51°57' E 003°59'0 0.0
2017-Nov-03 13:59N 51°57' E 003°59'0 0.0
2017-Nov-03 13:30N 51°57' E 003°59'0 0.0
2017-Nov-03 12:59N 51°57' E 003°59'0 0.0
2017-Nov-03 12:29N 51°57' E 003°59'0 0.0
2017-Nov-03 11:59N 51°57' E 003°59'0 0.0
2017-Nov-03 11:30N 51°57' E 003°59'0 0.0
2017-Nov-03 11:00N 51°57' E 003°59'0 0.0
2017-Nov-03 10:30N 51°57' E 003°59'0 0.0
2017-Nov-03 10:00N 51°57' E 003°59'0 0.0
2017-Nov-03 09:29N 51°57' E 003°59'0 0.0
2017-Nov-03 09:00N 51°57' E 003°59'0 0.0
2017-Nov-03 08:29N 51°57' E 003°59'0 0.0
2017-Nov-03 07:53N 51°57' E 003°59'0 0.0
2017-Nov-03 07:29N 51°57' E 003°59'0 0.0
2017-Nov-03 07:00N 51°57' E 003°59'0 0.0
2017-Nov-03 06:29N 51°57' E 003°59'0 0.0
2017-Nov-03 05:59N 51°57' E 003°59'0 0.0
2017-Nov-03 05:29N 51°57' E 003°59'0 0.0
2017-Nov-03 04:59N 51°57' E 003°59'0 0.0
2017-Nov-03 04:29N 51°57' E 003°59'0 0.0
2017-Nov-03 03:59N 51°57' E 003°59'0 0.0
2017-Nov-03 03:29N 51°57' E 003°59'0 0.0
2017-Nov-03 03:00N 51°57' E 003°59'0 0.0
2017-Nov-03 02:30N 51°57' E 003°59'0 0.0
2017-Nov-03 01:59N 51°57' E 003°59'0 0.0
2017-Nov-03 01:29N 51°57' E 003°59'0 0.0
2017-Nov-03 01:00N 51°57' E 003°59'0 0.0
2017-Nov-03 00:30N 51°57' E 003°59'0 0.0
2017-Nov-02 23:59N 51°57' E 003°59'0 0.0
2017-Nov-02 23:29N 51°57' E 003°59'0 0.0
2017-Nov-02 23:00N 51°57' E 003°59'0 0.0
2017-Nov-02 22:29N 51°57' E 003°59'0 0.0
2017-Nov-02 21:59N 51°57' E 003°59'0 0.0
2017-Nov-02 21:29N 51°57' E 003°59'0 0.0
2017-Nov-02 20:59N 51°57' E 003°59'0 0.0
2017-Nov-02 20:29N 51°57' E 003°59'0 0.0
2017-Nov-02 19:59N 51°57' E 003°59'0 0.0
2017-Nov-02 19:29N 51°57' E 003°59'0 0.0
2017-Nov-02 18:59N 51°57' E 003°59'0 0.0
2017-Nov-02 18:30N 51°57' E 003°59'0 0.0
2017-Nov-02 17:59N 51°57' E 003°59'0 0.0
2017-Nov-02 17:29N 51°57' E 003°59'0 0.0
2017-Nov-02 16:59N 51°57' E 003°59'0 0.0
2017-Nov-02 16:29N 51°57' E 003°59'0 0.0
2017-Nov-02 15:59N 51°57' E 003°59'0 0.0
2017-Nov-02 15:30N 51°57' E 003°59'0 0.0
2017-Nov-02 14:59N 51°57' E 003°59'0 0.0
2017-Nov-02 14:30N 51°57' E 003°59'0 0.0
2017-Nov-02 14:00N 51°57' E 003°59'0 0.0
2017-Nov-02 13:29N 51°57' E 003°59'0 0.0
2017-Nov-02 12:59N 51°57' E 003°59'0 0.0
2017-Nov-02 12:29N 51°57' E 003°59'0 0.0
2017-Nov-02 11:59N 51°57' E 003°59'0 0.0
2017-Nov-02 11:29N 51°57' E 003°59'0 0.0
2017-Nov-02 11:00N 51°57' E 003°59'0 0.0
2017-Nov-02 10:29N 51°57' E 003°59'0 0.0
2017-Nov-02 10:00N 51°57' E 003°59'0 0.0
2017-Nov-02 09:30N 51°57' E 003°59'0 0.0
2017-Nov-02 08:59N 51°57' E 003°59'0 0.0
2017-Nov-02 08:30N 51°57' E 003°59'0 0.0
2017-Nov-02 07:59N 51°57' E 003°59'0 0.0
2017-Nov-02 07:29N 51°57' E 003°59'0 0.0
2017-Nov-02 07:00N 51°57' E 003°59'0 0.0
2017-Nov-02 06:29N 51°57' E 003°59'0 0.0
2017-Nov-02 06:00N 51°57' E 003°59'0 0.0
2017-Nov-02 05:29N 51°57' E 003°59'0 0.0
2017-Nov-02 04:57N 51°57' E 003°59'0 0.0
2017-Nov-02 04:30N 51°57' E 003°59'0 0.0
2017-Nov-02 03:59N 51°57' E 003°59'0 0.0
2017-Nov-02 03:29N 51°57' E 003°59'0 0.0
2017-Nov-02 02:59N 51°57' E 003°59'0 0.0
2017-Nov-02 02:30N 51°57' E 003°59'0 0.0
2017-Nov-02 01:59N 51°57' E 003°59'0 0.0
2017-Nov-02 01:29N 51°57' E 003°59'0 0.0
2017-Nov-02 00:59N 51°57' E 003°59'0 0.0
2017-Nov-02 00:27N 51°57' E 003°59'0 0.0
2017-Nov-01 23:59N 51°57' E 003°59'0 0.0
2017-Nov-01 23:29N 51°57' E 003°59'0 0.0
2017-Nov-01 22:57N 51°57' E 003°59'0 0.0
2017-Nov-01 22:29N 51°57' E 003°59'0 0.0
2017-Nov-01 21:59N 51°57' E 003°59'0 0.0
2017-Nov-01 21:30N 51°57' E 003°59'0 0.0
2017-Nov-01 21:00N 51°57' E 003°59'0 0.0
2017-Nov-01 20:29N 51°57' E 003°59'0 0.0
2017-Nov-01 20:00N 51°57' E 003°59'0 0.0
2017-Nov-01 19:29N 51°57' E 003°59'0 0.0
2017-Nov-01 19:00N 51°57' E 003°59'0 0.0
2017-Nov-01 18:30N 51°57' E 003°59'  

Dump ship's entire track history